Latest Weather Observations for Orbost

IDV60801

Issued at 5:35 pm EST Saturday 19 April 2014 (issued every 30 minutes, with the page automatically refreshed every 10 minutes)

About weather observations | Map of weather stations | Latest weather observations for VIC | Other Formats
Station Details ID: 084145 Name: ORBOST Lat: -37.69 Lon: 148.47 Height: 62.65 m
Data from the previous 72 hours. | See also: Recent months at Orbost
Date/Time
EST
Temp
°C
App
Temp
°C
Dew
Point
Rel
Hum
%
Delta-T
°C
Wind Press
QNH
hPa
Press
MSL
hPa
Rain
since 9 am
mm
Dir
 
Spd
km/h
Gust
km/h
Spd
kts
Gust
kts
19/05:30pm 13.2 12.4 9.8 80 1.7 WSW 4 6 2 3 1017.9 - 0.2
19/05:00pm 13.5 12.3 9.6 77 2.0 WSW 6 9 3 5 1017.8 1017.7 0.2
19/04:30pm 13.7 11.9 9.6 76 2.1 SW 9 13 5 7 1017.6 - 0.2
19/04:00pm 14.2 11.9 9.0 71 2.6 SW 11 17 6 9 1017.6 1017.5 0.2
19/03:30pm 14.4 11.0 9.0 70 2.8 SW 17 24 9 13 1017.5 - 0.2
19/03:00pm 14.7 11.3 9.3 70 2.8 SW 17 24 9 13 1017.4 1017.3 0.2
19/02:30pm 16.1 13.7 8.6 61 3.8 WSW 11 22 6 12 1017.4 - 0.2
19/02:00pm 14.9 11.9 7.9 63 3.5 W 13 22 7 12 1017.3 1017.2 0.2
19/01:30pm 14.6 12.2 8.5 67 3.1 W 11 17 6 9 1017.3 - 0.2
19/01:00pm 14.5 11.7 8.7 68 2.9 W 13 22 7 12 1017.6 1017.5 0.2
19/12:30pm 15.8 13.0 10.1 69 3.0 WSW 15 22 8 12 1017.9 - 0.2
19/12:00pm 12.7 9.4 9.7 82 1.5 WSW 17 24 9 13 1018.5 1018.4 0.2
19/11:30am 14.8 11.5 8.1 64 3.4 W 15 22 8 12 1018.5 - 0.0
19/11:00am 14.5 11.5 9.3 71 2.7 W 15 20 8 11 1018.7 1018.6 0.0
19/10:30am 13.2 10.8 10.0 81 1.7 WNW 13 24 7 13 1018.9 - 0.0
19/10:00am 12.8 8.8 9.1 78 1.9 WSW 20 32 11 17 1019.0 1018.9 0.0
19/09:30am 13.6 10.8 8.4 71 2.6 W 13 20 7 11 1018.6 - 0.0
19/09:00am 13.8 11.5 9.0 73 2.4 W 11 19 6 10 1018.7 1018.6 2.6
19/08:30am 12.7 10.6 8.4 75 2.1 W 9 13 5 7 1018.7 - 2.6
19/08:00am 12.0 9.4 7.9 76 2.0 WNW 11 19 6 10 1018.4 1018.3 2.6
19/07:30am 11.0 8.9 8.2 83 1.4 W 9 15 5 8 1018.3 - 2.6
19/07:00am 11.5 7.7 7.6 77 1.9 W 17 24 9 13 1017.9 1017.8 2.6
19/06:30am 11.2 8.4 7.1 76 2.0 WNW 11 19 6 10 1017.6 - 2.6
19/06:00am 11.5 8.4 7.2 75 2.1 W 13 22 7 12 1017.3 1017.2 2.6
19/05:30am 11.7 8.6 7.4 75 2.1 WNW 13 19 7 10 1017.1 - 2.6
19/05:00am 11.5 8.4 7.4 76 2.0 W 13 22 7 12 1017.1 1017.0 2.6
19/04:30am 11.7 8.6 7.4 75 2.1 W 13 20 7 11 1016.9 - 2.6
19/04:00am 11.1 8.4 7.2 77 1.9 WNW 11 19 6 10 1016.8 1016.7 2.6
19/03:30am 11.2 8.1 7.1 76 2.0 NW 13 19 7 10 1016.7 - 2.6
19/03:00am 11.0 7.9 7.1 77 1.9 NW 13 22 7 12 1016.8 1016.7 2.6
19/02:30am 10.8 8.0 6.9 77 1.9 WNW 11 17 6 9 1017.0 - 2.6
19/02:00am 10.5 7.7 6.8 78 1.7 NW 11 19 6 10 1017.0 1016.9 2.6
19/01:30am 10.6 8.2 6.9 78 1.8 NW 9 22 5 12 1017.1 - 2.6
19/01:00am 10.7 7.9 7.0 78 1.8 WNW 11 15 6 8 1017.2 1017.1 2.6
19/12:30am 10.7 7.9 7.0 78 1.8 WNW 11 19 6 10 1017.1 - 2.6
19/12:00am 11.0 8.2 6.9 76 1.9 WNW 11 22 6 12 1017.3 1017.2 2.6
 
Date/Time
EST
Temp
°C
App
Temp
°C
Dew
Point
Rel
Hum
%
Delta-T
°C
Wind Press
QNH
hPa
Press
MSL
hPa
Rain
since 9 am
mm
Dir
 
Spd
km/h
Gust
km/h
Spd
kts
Gust
kts
18/11:30pm 11.4 8.3 7.1 75 2.1 WNW 13 20 7 11 1017.4 - 2.6
18/11:00pm 11.3 8.6 7.4 77 1.9 WNW 11 15 6 8 1017.5 1017.4 2.6
18/10:30pm 11.1 8.8 7.6 79 1.7 W 9 15 5 8 1017.7 - 2.6
18/10:00pm 11.6 9.5 8.1 79 1.7 WNW 9 17 5 9 1017.8 1017.7 2.6
18/09:30pm 11.9 9.4 8.2 78 1.8 WNW 11 17 6 9 1017.9 - 2.6
18/09:00pm 11.1 9.5 8.7 85 1.2 WNW 7 13 4 7 1017.8 1017.7 2.6
18/08:30pm 11.7 10.2 9.1 84 1.3 WNW 7 13 4 7 1017.6 - 2.6
18/08:00pm 12.1 10.3 9.5 84 1.3 WNW 9 17 5 9 1017.2 1017.1 2.6
18/07:30pm 12.4 10.3 9.8 84 1.3 WNW 11 17 6 9 1016.9 - 2.6
18/07:00pm 12.9 11.5 10.8 87 1.1 NW 9 19 5 10 1016.7 1016.6 2.6
18/06:30pm 13.1 11.9 11.5 90 0.9 NNW 9 15 5 8 1016.2 - 2.6
18/06:00pm 13.1 12.3 11.7 91 0.7 NW 7 11 4 6 1015.9 1015.8 2.6
18/05:30pm 13.3 12.6 12.0 92 0.7 NW 7 11 4 6 1015.5 - 2.6
18/05:00pm 13.4 12.4 12.3 93 0.6 WNW 9 15 5 8 1015.1 1015.0 2.6
18/04:30pm 13.5 12.6 12.7 95 0.4 W 9 19 5 10 1014.7 - 2.4
18/04:00pm 13.4 11.7 12.5 94 0.5 W 13 22 7 12 1014.2 1014.1 2.2
18/03:30pm 13.1 9.9 12.0 93 0.6 WSW 20 32 11 17 1013.9 - 1.6
18/03:00pm 14.0 8.7 12.6 91 0.8 SW 32 48 17 26 1013.4 1013.3 0.4
18/02:34pm 16.2 11.3 12.7 80 1.9 SW 30 50 16 27 1012.6 - 0.0
18/02:30pm 16.7 12.3 13.0 79 2.1 SW 28 44 15 24 1012.5 - 0.0
18/02:27pm 16.8 12.3 12.7 77 2.3 SW 28 44 15 24 1012.4 - 0.0
18/02:00pm 21.0 18.0 9.3 47 6.3 WNW 15 26 8 14 1011.2 1011.1 0.0
18/01:30pm 22.0 18.4 8.5 42 7.1 WNW 17 28 9 15 1011.1 - 0.0
18/01:00pm 23.0 19.1 8.7 40 7.6 NW 19 28 10 15 1011.2 1011.1 0.0
18/12:30pm 22.4 20.1 10.5 47 6.5 NW 13 19 7 10 1011.8 - 0.0
18/12:00pm 21.2 18.0 9.8 48 6.2 NNW 17 24 9 13 1012.3 1012.2 0.0
18/11:30am 21.8 19.1 10.3 48 6.3 NW 15 22 8 12 1012.7 - 0.0
18/11:00am 21.6 19.8 12.2 55 5.3 NW 13 19 7 10 1013.3 1013.2 0.0
18/10:30am 19.3 17.3 10.3 56 4.9 NW 11 17 6 9 1013.9 - 0.0
18/10:00am 18.9 17.4 10.7 59 4.4 NW 9 19 5 10 1014.1 1014.0 0.0
18/09:30am 17.7 16.9 11.0 65 3.6 W 6 7 3 4 1014.4 - 0.0
18/09:00am 16.6 15.1 10.5 67 3.2 NW 9 19 5 10 1014.7 1014.6 0.0
18/08:30am 14.7 14.1 11.8 83 1.6 NW 6 13 3 7 1014.8 - 0.0
18/08:00am 12.4 12.6 10.6 89 0.9 CALM 0 0 0 0 1014.9 1014.8 0.0
18/07:30am 11.8 11.7 9.4 85 1.2 CALM 0 0 0 0 1014.8 - 0.0
18/07:00am 11.2 11.1 9.3 88 1.0 CALM 0 0 0 0 1014.7 1014.6 0.0
18/06:30am 10.9 10.7 9.2 89 0.8 CALM 0 0 0 0 1014.8 - 0.0
18/06:00am 11.1 10.6 9.4 89 0.9 NNW 2 6 1 3 1014.9 1014.8 0.0
18/05:30am 11.1 10.4 9.9 92 0.6 N 4 6 2 3 1015.1 - 0.0
18/05:00am 10.5 10.4 9.4 93 0.6 CALM 0 0 0 0 1015.3 1015.2 0.0
18/04:30am 10.3 10.1 9.2 93 0.5 CALM 0 0 0 0 1015.4 - 0.0
18/04:00am 10.8 10.7 9.6 92 0.6 CALM 0 0 0 0 1015.7 1015.6 0.0
18/03:30am 11.1 11.1 9.9 92 0.6 CALM 0 0 0 0 1015.9 - 0.0
18/03:00am 11.1 11.1 9.7 91 0.7 CALM 0 0 0 0 1016.2 1016.1 0.0
18/02:30am 10.7 10.7 9.8 94 0.5 CALM 0 0 0 0 1016.5 - 0.0
18/02:00am 11.0 11.0 9.9 93 0.6 CALM 0 0 0 0 1016.9 1016.8 0.0
18/01:30am 10.9 10.9 9.8 93 0.6 CALM 0 0 0 0 1017.2 - 0.0
18/01:00am 11.3 11.5 10.4 94 0.5 CALM 0 0 0 0 1017.4 1017.3 0.0
18/12:30am 11.3 11.5 10.4 94 0.5 CALM 0 0 0 0 1017.7 - 0.0
18/12:00am 11.2 11.3 10.3 94 0.5 CALM 0 0 0 0 1018.0 1017.9 0.0
 
Date/Time
EST
Temp
°C
App
Temp
°C
Dew
Point
Rel
Hum
%
Delta-T
°C
Wind Press
QNH
hPa
Press
MSL
hPa
Rain
since 9 am
mm
Dir
 
Spd
km/h
Gust
km/h
Spd
kts
Gust
kts
17/11:30pm 11.2 11.3 10.3 94 0.5 CALM 0 0 0 0 1018.2 - 0.0
17/11:00pm 11.3 11.5 10.5 95 0.4 CALM 0 0 0 0 1018.5 1018.4 0.0
17/10:30pm 11.2 11.4 10.6 96 0.3 CALM 0 0 0 0 1018.8 - 0.0
17/10:00pm 11.6 11.5 10.8 95 0.4 NNE 2 4 1 2 1019.1 1019.0 0.0
17/09:30pm 12.2 12.6 11.3 94 0.5 CALM 0 0 0 0 1019.4 - 0.0
17/09:00pm 12.1 12.5 11.2 94 0.5 CALM 0 0 0 0 1019.4 1019.4 0.0
17/08:30pm 13.0 13.5 11.6 91 0.7 CALM 0 0 0 0 1019.4 - 0.0
17/08:00pm 13.2 13.7 11.6 90 0.9 CALM 0 0 0 0 1019.4 1019.4 0.0
17/07:30pm 12.8 13.2 11.2 90 0.8 CALM 0 0 0 0 1019.3 - 0.0
17/07:00pm 13.5 13.3 11.9 90 0.9 ENE 4 7 2 4 1019.1 1019.0 0.0
17/06:30pm 13.5 13.3 11.7 89 1.0 E 4 6 2 3 1019.1 - 0.0
17/06:00pm 14.1 14.2 11.6 85 1.3 E 2 4 1 2 1019.1 1019.0 0.0
17/05:30pm 15.9 16.2 12.1 78 2.1 ESE 2 4 1 2 1019.0 - 0.0
17/05:00pm 17.3 16.7 11.6 69 3.1 SE 6 9 3 5 1019.0 1018.9 0.0
17/04:30pm 18.2 17.5 11.5 65 3.7 SSE 6 9 3 5 1019.1 - 0.0
17/04:00pm 18.6 17.7 11.2 62 4.0 SE 7 13 4 7 1019.2 1019.1 0.0
17/03:30pm 18.9 18.0 11.5 62 4.1 SE 7 11 4 6 1019.4 - 0.0
17/03:00pm 19.2 18.3 11.3 60 4.3 SSE 7 11 4 6 1019.7 1019.7 0.0
17/02:30pm 19.7 18.8 11.5 59 4.5 S 7 15 4 8 1019.7 - 0.0
17/02:00pm 20.2 19.4 10.9 55 5.1 WSW 6 13 3 7 1019.8 1019.8 0.0
17/01:30pm 19.9 19.2 8.6 48 5.9 SE 2 6 1 3 1019.8 - 0.0
17/01:00pm 19.8 19.3 10.8 56 4.9 S 4 7 2 4 1020.2 1020.2 0.0
17/12:30pm 19.2 18.0 10.2 56 4.8 SSW 7 11 4 6 1020.4 - 0.0
17/12:00pm 19.3 18.7 11.8 62 4.1 SSE 6 11 3 6 1021.0 1021.0 0.0
17/11:30am 18.8 18.0 11.1 61 4.2 WSW 6 7 3 4 1021.4 - 0.0
17/11:00am 18.0 17.9 10.9 63 3.8 NNE 2 6 1 3 1021.6 1021.6 0.0
17/10:30am 17.8 17.2 11.8 68 3.3 W 6 7 3 4 1021.6 - 0.0
17/10:00am 16.6 16.9 12.2 75 2.4 WNW 2 7 1 4 1021.6 1021.6 0.0
17/09:30am 15.6 15.5 12.2 80 1.9 NW 4 6 2 3 1021.7 - 0.0
17/09:00am 13.2 13.8 11.9 92 0.7 CALM 0 4 0 2 1021.8 1021.8 0.2
17/08:30am 11.8 12.3 11.5 98 0.2 CALM 0 0 0 0 1021.7 - 0.2
17/08:00am 11.1 11.0 10.9 99 0.1 NNW 2 4 1 2 1021.5 1021.5 0.2
17/07:30am 9.5 9.4 9.4 99 0.0 CALM 0 0 0 0 1021.4 - 0.2
17/07:00am 9.0 8.8 8.9 99 0.0 CALM 0 0 0 0 1021.0 1021.0 0.2
17/06:30am 9.6 8.4 9.5 99 0.0 N 6 7 3 4 1020.6 - 0.0
17/06:00am 8.1 6.8 7.8 98 0.1 NNW 4 6 2 3 1020.5 1020.5 0.0
17/05:30am 9.3 9.1 9.2 99 0.0 CALM 0 0 0 0 1020.2 - 0.0
17/05:00am 8.9 8.2 8.6 98 0.1 E 2 4 1 2 1020.1 1020.1 0.0
17/04:30am 9.6 9.1 9.3 98 0.1 WNW 2 4 1 2 1020.0 - 0.0
17/04:00am 9.2 9.0 8.9 98 0.1 CALM 0 0 0 0 1019.8 1019.8 0.0
17/03:30am 9.5 8.2 9.2 98 0.1 N 6 7 3 4 1019.7 - 0.0
17/03:00am 9.7 9.6 9.4 98 0.1 CALM 0 0 0 0 1019.7 1019.7 0.0
17/02:30am 9.5 9.3 9.2 98 0.1 CALM 0 0 0 0 1019.8 - 0.0
17/02:00am 9.3 9.1 9.0 98 0.1 CALM 0 0 0 0 1019.7 1019.7 0.0
17/01:30am 9.7 9.2 9.4 98 0.1 NE 2 4 1 2 1020.0 - 0.0
17/01:00am 9.9 9.8 9.4 97 0.2 CALM 0 4 0 2 1020.2 1020.2 0.0
17/12:30am 10.0 8.8 9.5 97 0.3 N 6 7 3 4 1020.3 - 0.0
17/12:00am 10.3 10.3 9.8 97 0.3 CALM 0 0 0 0 1020.5 1020.5 0.0
 
Date/Time
EST
Temp
°C
App
Temp
°C
Dew
Point
Rel
Hum
%
Delta-T
°C
Wind Press
QNH
hPa
Press
MSL
hPa
Rain
since 9 am
mm
Dir
 
Spd
km/h
Gust
km/h
Spd
kts
Gust
kts
16/11:30pm 10.3 9.5 9.7 96 0.3 NNE 4 6 2 3 1020.5 - 0.0
16/11:00pm 10.9 10.3 10.3 96 0.3 NNW 4 6 2 3 1020.7 1020.7 0.0
16/10:30pm 10.6 9.9 10.0 96 0.3 N 4 6 2 3 1020.8 - 0.0
16/10:00pm 10.9 10.3 10.3 96 0.3 N 4 4 2 2 1020.9 1020.9 0.0
16/09:30pm 11.1 10.9 10.3 95 0.4 N 2 4 1 2 1020.9 - 0.0
16/09:00pm 11.2 10.6 10.4 95 0.4 N 4 6 2 3 1020.8 1020.8 0.0
16/08:30pm 11.9 12.2 10.8 93 0.6 CALM 0 0 0 0 1020.6 - 0.0
16/08:00pm 12.1 12.5 11.2 94 0.5 CALM 0 0 0 0 1020.4 1020.4 0.0
16/07:30pm 12.7 13.1 11.3 91 0.7 CALM 0 0 0 0 1020.2 - 0.0
16/07:00pm 12.8 13.3 11.5 92 0.7 CALM 0 0 0 0 1020.0 1020.0 0.0
16/06:30pm 13.5 14.0 11.6 88 1.0 CALM 0 0 0 0 1019.9 - 0.0
16/06:00pm 14.2 14.7 11.7 85 1.3 CALM 0 0 0 0 1019.6 1019.6 0.0

Other Formats:

Comma delimited format used in spreadsheet applications
http://www.bom.gov.au/fwo/IDV60801/IDV60801.95918.axf

JavaScript Object Notation format (JSON) in row-major order
http://www.bom.gov.au/fwo/IDV60801/IDV60801.95918.json